createdAt,value
2018-06-18T00:02:06.060Z,5.35
2018-06-18T00:04:38.356Z,5.25
2018-06-18T00:07:09.978Z,6.25
2018-06-18T00:09:41.338Z,7.20
2018-06-18T00:12:12.570Z,6.22
2018-06-18T00:14:43.838Z,5.53
2018-06-18T00:17:15.063Z,4.80
2018-06-18T00:19:46.547Z,4.80
2018-06-18T00:22:18.888Z,5.17
2018-06-18T00:24:50.357Z,5.47
2018-06-18T00:27:21.467Z,6.22
2018-06-18T00:29:52.907Z,6.50
2018-06-18T00:32:24.224Z,6.78
2018-06-18T00:34:55.435Z,7.05
2018-06-18T00:37:26.576Z,6.58
2018-06-18T00:39:57.716Z,7.33
2018-06-18T00:42:29.633Z,7.40
2018-06-18T00:45:00.982Z,6.70
2018-06-18T00:47:32.467Z,6.60
2018-06-18T00:50:03.563Z,6.92
2018-06-18T00:52:35.722Z,7.12
2018-06-18T00:55:06.490Z,6.77
2018-06-18T00:57:37.312Z,6.67
2018-06-18T01:00:08.283Z,7.17
2018-06-18T01:02:39.819Z,6.62
2018-06-18T01:05:10.710Z,6.60
2018-06-18T01:07:41.487Z,6.83
2018-06-18T01:10:12.275Z,6.63
2018-06-18T01:12:43.183Z,7.05
2018-06-18T01:15:14.079Z,6.43
2018-06-18T01:17:44.906Z,6.70
2018-06-18T01:20:15.826Z,6.60
2018-06-18T01:22:53.508Z,6.60
2018-06-18T01:25:24.293Z,6.83
2018-06-18T01:27:55.096Z,6.97
2018-06-18T01:30:25.928Z,7.20
2018-06-18T01:32:56.766Z,6.37
2018-06-18T01:35:28.985Z,7.03
2018-06-18T01:38:01.089Z,7.90
2018-06-18T01:40:32.356Z,6.43
2018-06-18T01:43:03.629Z,7.50
2018-06-18T01:45:35.231Z,7.00
2018-06-18T01:48:06.240Z,6.53
2018-06-18T01:50:37.056Z,6.35
2018-06-18T01:53:08.165Z,7.77
2018-06-18T01:55:39.367Z,6.93
2018-06-18T01:58:10.637Z,7.63
2018-06-18T02:00:42.002Z,6.93
2018-06-18T02:03:13.352Z,7.23
2018-06-18T02:05:44.145Z,7.40
2018-06-18T02:08:16.130Z,7.63
2018-06-18T02:10:47.960Z,7.80
2018-06-18T02:13:19.241Z,7.27
2018-06-18T02:15:50.069Z,7.43
2018-06-18T02:18:20.872Z,7.70
2018-06-18T02:20:51.644Z,8.47
2018-06-18T02:23:23.438Z,8.10
2018-06-18T02:25:54.782Z,8.10
2018-06-18T02:28:31.709Z,8.23
2018-06-18T02:31:08.767Z,8.53
2018-06-18T02:33:45.080Z,8.10
2018-06-18T02:36:20.896Z,7.87
2018-06-18T02:38:56.679Z,7.77
2018-06-18T02:41:27.560Z,8.50
2018-06-18T02:43:58.347Z,8.20
2018-06-18T02:46:29.165Z,8.73
2018-06-18T02:48:59.958Z,8.40
2018-06-18T02:51:30.743Z,9.07
2018-06-18T02:54:01.528Z,8.17
2018-06-18T02:56:59.408Z,8.53
2018-06-18T02:59:31.728Z,7.73
2018-06-18T03:02:03.492Z,8.60
2018-06-18T03:04:34.623Z,7.97
2018-06-18T03:07:06.024Z,8.03
2018-06-18T03:09:37.169Z,8.03
2018-06-18T03:12:08.491Z,8.53
2018-06-18T03:14:39.633Z,8.70
2018-06-18T03:17:11.514Z,18.53
2018-06-18T03:19:47.483Z,9.13
2018-06-18T03:22:23.680Z,11.30
2018-06-18T03:25:01.276Z,15.87
2018-06-18T03:27:37.198Z,17.30
2018-06-18T03:30:08.101Z,13.23
2018-06-18T03:32:39.134Z,8.73
2018-06-18T03:35:10.299Z,8.27
2018-06-18T03:37:41.421Z,8.07
2018-06-18T03:40:12.851Z,7.70
2018-06-18T03:42:45.043Z,8.60
2018-06-18T03:45:25.457Z,7.80
2018-06-18T03:47:58.377Z,7.93
2018-06-18T03:50:29.172Z,7.67
2018-06-18T03:52:59.971Z,7.37
2018-06-18T03:55:53.224Z,7.80
2018-06-18T03:58:24.122Z,7.53
2018-06-18T04:01:29.882Z,7.77
2018-06-18T04:04:08.924Z,9.23
2018-06-18T04:06:45.188Z,7.20
2018-06-18T04:09:21.649Z,8.60
2018-06-18T04:11:57.501Z,10.07
2018-06-18T04:14:28.336Z,7.17
2018-06-18T04:16:59.154Z,7.07
2018-06-18T04:19:30.036Z,7.47
2018-06-18T04:22:00.909Z,7.50
2018-06-18T04:24:31.732Z,6.57
2018-06-18T04:27:02.692Z,9.30
2018-06-18T04:29:33.502Z,11.40
2018-06-18T04:32:04.351Z,7.33
2018-06-18T04:34:48.164Z,7.65
2018-06-18T04:37:19.035Z,7.60
2018-06-18T04:39:50.865Z,7.17
2018-06-18T04:42:27.303Z,6.33
2018-06-18T04:45:03.608Z,6.85
2018-06-18T04:47:40.647Z,7.00
2018-06-18T04:50:17.248Z,7.58
2018-06-18T04:52:48.219Z,7.37
2018-06-18T04:55:19.448Z,7.72
2018-06-18T04:57:51.371Z,7.55
2018-06-18T05:01:15.023Z,6.70
2018-06-18T05:03:46.656Z,6.12
2018-06-18T05:06:17.896Z,6.80
2018-06-18T05:10:57.710Z,6.83
2018-06-18T05:13:29.221Z,6.85
2018-06-18T05:16:00.152Z,6.87
2018-06-18T05:18:31.646Z,7.53
2018-06-18T05:21:03.079Z,6.62
2018-06-18T05:23:34.621Z,7.00
2018-06-18T05:26:06.083Z,6.35
2018-06-18T05:28:37.188Z,6.03
2018-06-18T05:31:08.867Z,6.85
2018-06-18T05:33:40.357Z,6.20
2018-06-18T05:36:11.176Z,7.28
2018-06-18T05:38:42.496Z,7.62
2018-06-18T05:41:13.658Z,6.67
2018-06-18T05:43:44.461Z,6.15
2018-06-18T05:46:15.282Z,5.80
2018-06-18T05:48:47.088Z,6.40
2018-06-18T05:51:19.808Z,6.65
2018-06-18T05:53:50.559Z,6.60
2018-06-18T05:56:22.257Z,6.05
2018-06-18T05:58:53.840Z,6.30
2018-06-18T06:01:25.701Z,6.50
2018-06-18T06:03:57.673Z,6.05
2018-06-18T06:06:29.110Z,6.15
2018-06-18T06:09:00.558Z,6.53
2018-06-18T06:11:31.673Z,6.08
2018-06-18T06:14:03.245Z,6.05
2018-06-18T06:16:34.687Z,6.25
2018-06-18T06:19:05.912Z,6.33
2018-06-18T06:21:37.312Z,6.65
2018-06-18T06:24:09.158Z,6.33
2018-06-18T06:26:40.808Z,6.20
2018-06-18T06:29:12.382Z,6.47
2018-06-18T06:31:44.200Z,6.05
2018-06-18T06:34:15.284Z,5.87
2018-06-18T06:36:46.127Z,5.30
2018-06-18T06:39:17.856Z,5.97
2018-06-18T06:41:54.978Z,6.10
2018-06-18T06:44:26.569Z,6.50
2018-06-18T06:46:58.024Z,6.05
2018-06-18T06:49:29.426Z,8.53
2018-06-18T06:52:00.678Z,8.80
2018-06-18T06:54:31.583Z,6.35
2018-06-18T06:57:03.201Z,6.12
2018-06-18T06:59:34.958Z,6.97
2018-06-18T07:02:06.168Z,6.22
2018-06-18T07:04:37.201Z,6.53
2018-06-18T07:07:08.571Z,6.42
2018-06-18T07:09:40.321Z,11.30
2018-06-18T07:12:11.422Z,8.23
2018-06-18T07:14:43.264Z,8.60
2018-06-18T07:17:14.920Z,7.28
2018-06-18T07:19:46.616Z,7.17
2018-06-18T07:22:18.226Z,7.70
2018-06-18T07:24:49.367Z,9.10
2018-06-18T07:27:20.705Z,8.55
2018-06-18T07:29:52.000Z,6.58
2018-06-18T07:32:23.840Z,6.60
2018-06-18T07:34:55.186Z,6.95
2018-06-18T07:37:26.666Z,6.15
2018-06-18T07:39:58.151Z,7.12
2018-06-18T07:42:29.662Z,10.15
2018-06-18T07:45:01.193Z,9.68
2018-06-18T07:47:33.305Z,7.15
2018-06-18T07:50:04.583Z,6.28
2018-06-18T07:52:35.919Z,7.40
2018-06-18T07:55:08.025Z,6.97
2018-06-18T07:57:39.344Z,6.95
2018-06-18T08:00:11.343Z,7.15
2018-06-18T08:02:42.252Z,6.85
2018-06-18T08:05:13.496Z,7.15
2018-06-18T08:07:45.255Z,7.58
2018-06-18T08:10:17.147Z,6.78
2018-06-18T08:12:48.582Z,6.30
2018-06-18T08:15:19.957Z,6.62
2018-06-18T08:17:51.769Z,6.12
2018-06-18T08:20:23.132Z,6.78
2018-06-18T08:22:54.399Z,6.58
2018-06-18T08:25:25.673Z,7.35
2018-06-18T08:27:57.135Z,7.53
2018-06-18T08:30:28.736Z,8.88
2018-06-18T08:33:00.482Z,7.03
2018-06-18T08:35:31.820Z,6.12
2018-06-18T08:38:04.215Z,6.60
2018-06-18T08:40:35.860Z,6.37
2018-06-18T08:43:07.347Z,6.45
2018-06-18T08:45:38.324Z,6.60
2018-06-18T08:48:09.773Z,6.55
2018-06-18T08:50:46.346Z,5.83
2018-06-18T08:53:22.845Z,6.00
2018-06-18T08:55:59.247Z,6.08
2018-06-18T08:58:36.200Z,6.03
2018-06-18T09:01:09.550Z,5.95
2018-06-18T09:03:45.926Z,5.35
2018-06-18T09:06:17.473Z,5.37
2018-06-18T09:08:50.927Z,5.80
2018-06-18T09:11:22.094Z,5.42
2018-06-18T09:13:54.325Z,5.40
2018-06-18T09:16:25.716Z,6.12
2018-06-18T09:18:56.908Z,6.25
2018-06-18T09:21:28.430Z,5.47
2018-06-18T09:23:59.628Z,5.83
2018-06-18T09:26:31.169Z,5.92
2018-06-18T09:29:02.578Z,5.40
2018-06-18T09:31:33.992Z,5.85
2018-06-18T09:34:05.875Z,5.10
2018-06-18T09:36:37.063Z,5.40
2018-06-18T09:39:09.354Z,5.40
2018-06-18T09:41:41.151Z,5.00
2018-06-18T09:44:12.366Z,5.00
2018-06-18T09:46:43.544Z,5.45
2018-06-18T09:49:19.906Z,5.70
2018-06-18T09:51:56.279Z,5.60
2018-06-18T09:54:32.623Z,5.28
2018-06-18T09:57:09.279Z,5.47
2018-06-18T09:59:46.047Z,5.50
2018-06-18T10:02:17.199Z,5.53
2018-06-18T10:04:48.436Z,5.90
2018-06-18T10:07:20.323Z,5.78
2018-06-18T10:09:51.643Z,5.37
2018-06-18T10:12:23.038Z,6.08
2018-06-18T10:14:55.381Z,5.75
2018-06-18T10:17:26.616Z,5.87
2018-06-18T10:19:58.287Z,5.87
2018-06-18T10:22:29.620Z,5.75
2018-06-18T10:25:00.909Z,5.58
2018-06-18T10:27:32.402Z,6.40
2018-06-18T10:30:03.562Z,6.10
2018-06-18T10:32:39.942Z,6.10
2018-06-18T10:35:16.561Z,5.53
2018-06-18T10:37:53.168Z,5.95
2018-06-18T10:40:29.509Z,6.35
2018-06-18T10:43:05.898Z,5.92
2018-06-18T10:45:37.354Z,6.12
2018-06-18T10:48:09.192Z,5.80
2018-06-18T10:50:40.420Z,6.10
2018-06-18T10:53:11.723Z,6.12
2018-06-18T10:55:43.256Z,5.80
2018-06-18T10:58:14.568Z,5.67
2018-06-18T11:00:47.183Z,6.03
2018-06-18T11:03:18.646Z,5.72
2018-06-18T11:05:54.704Z,5.80
2018-06-18T11:08:26.127Z,5.37
2018-06-18T11:10:57.242Z,5.40
2018-06-18T11:13:28.747Z,5.47
2018-06-18T11:16:00.601Z,5.95
2018-06-18T11:18:37.683Z,5.10
2018-06-18T11:21:14.538Z,5.47
2018-06-18T11:23:50.953Z,5.62
2018-06-18T11:26:27.721Z,5.33
2018-06-18T11:28:59.254Z,4.67
2018-06-18T11:31:30.669Z,4.45
2018-06-18T11:34:01.907Z,4.20
2018-06-18T11:36:33.327Z,4.83
2018-06-18T11:39:06.563Z,4.50
2018-06-18T11:41:37.923Z,4.62
2018-06-18T11:44:09.031Z,5.12
2018-06-18T11:46:40.363Z,5.15
2018-06-18T11:49:11.795Z,5.28
2018-06-18T11:51:42.883Z,5.47
2018-06-18T11:54:14.268Z,5.25
2018-06-18T11:56:45.607Z,5.40
2018-06-18T11:59:21.452Z,5.45
2018-06-18T12:01:57.396Z,5.72
2018-06-18T12:05:32.516Z,5.30
2018-06-18T12:08:08.975Z,5.62
2018-06-18T12:10:40.510Z,6.15
2018-06-18T12:13:11.234Z,6.60
2018-06-18T12:15:42.540Z,6.00
2018-06-18T12:18:14.601Z,5.90
2018-06-18T12:20:46.672Z,5.85
2018-06-18T12:23:18.600Z,6.17
2018-06-18T12:25:49.936Z,6.10
2018-06-18T12:28:21.741Z,5.65
2018-06-18T12:30:52.987Z,5.83
2018-06-18T12:33:24.033Z,5.97
2018-06-18T12:35:55.815Z,6.08
2018-06-18T12:38:27.418Z,6.37
2018-06-18T12:40:59.271Z,6.25
2018-06-18T12:43:34.863Z,7.60
2018-06-18T12:46:12.317Z,6.80
2018-06-18T12:48:48.515Z,6.60
2018-06-18T12:51:24.927Z,6.85
2018-06-18T12:54:01.055Z,7.28
2018-06-18T12:56:37.864Z,6.70
2018-06-18T12:59:09.272Z,7.25
2018-06-18T13:01:44.827Z,6.70
2018-06-18T13:04:16.171Z,6.65
2018-06-18T13:06:47.580Z,6.50
2018-06-18T13:09:19.130Z,6.78
2018-06-18T13:11:50.394Z,6.78
2018-06-18T13:14:21.772Z,6.85
2018-06-18T13:16:52.899Z,7.03
2018-06-18T13:19:24.319Z,6.50
2018-06-18T13:21:55.518Z,6.75
2018-06-18T13:24:26.902Z,7.20
2018-06-18T13:26:58.651Z,6.42
2018-06-18T13:29:30.220Z,9.23
2018-06-18T13:32:01.666Z,8.48
2018-06-18T13:34:32.928Z,7.75
2018-06-18T13:37:09.595Z,8.03
2018-06-18T13:39:45.941Z,6.72
2018-06-18T13:42:22.482Z,6.92
2018-06-18T13:45:01.935Z,7.95
2018-06-18T13:47:38.276Z,6.92
2018-06-18T13:50:09.734Z,6.05
2018-06-18T13:52:41.064Z,6.33
2018-06-18T13:55:12.311Z,6.45
2018-06-18T13:57:43.871Z,6.22
2018-06-18T14:00:15.309Z,6.22
2018-06-18T14:02:46.894Z,6.33
2018-06-18T14:05:18.409Z,6.50
2018-06-18T14:07:50.370Z,5.70
2018-06-18T14:10:21.734Z,6.15
2018-06-18T14:12:53.019Z,5.70
2018-06-18T14:15:24.476Z,5.42
2018-06-18T14:17:56.458Z,5.97
2018-06-18T14:20:28.176Z,5.85
2018-06-18T14:23:00.135Z,5.78
2018-06-18T14:25:31.590Z,6.58
2018-06-18T14:28:03.347Z,5.87
2018-06-18T14:30:39.672Z,6.25
2018-06-18T14:33:16.003Z,6.58
2018-06-18T14:35:52.620Z,5.67
2018-06-18T14:38:28.757Z,6.65
2018-06-18T14:41:00.133Z,7.45
2018-06-18T14:43:32.324Z,6.78
2018-06-18T14:46:03.794Z,6.30
2018-06-18T14:48:35.274Z,7.30
2018-06-18T14:51:06.924Z,8.25
2018-06-18T14:53:38.468Z,7.10
2018-06-18T14:56:20.031Z,7.28
2018-06-18T14:59:07.344Z,6.67
2018-06-18T15:01:39.287Z,7.90
2018-06-18T15:04:10.622Z,7.40
2018-06-18T15:06:42.817Z,7.15
2018-06-18T15:09:14.239Z,6.90
2018-06-18T15:11:45.884Z,6.90
2018-06-18T15:14:16.996Z,6.58
2018-06-18T15:16:48.417Z,6.95
2018-06-18T15:19:20.186Z,7.78
2018-06-18T15:21:58.101Z,6.62
2018-06-18T15:25:08.771Z,6.53
2018-06-18T15:27:40.347Z,6.15
2018-06-18T15:30:12.195Z,6.10
2018-06-18T15:32:43.687Z,6.60
2018-06-18T15:35:15.008Z,7.37
2018-06-18T15:37:46.592Z,6.62
2018-06-18T15:40:18.436Z,6.92
2018-06-18T15:42:49.974Z,8.03
2018-06-18T15:45:21.250Z,7.15
2018-06-18T15:47:53.060Z,6.67
2018-06-18T15:50:24.521Z,6.40
2018-06-18T15:52:57.590Z,6.47
2018-06-18T15:55:28.577Z,7.00
2018-06-18T15:57:59.929Z,6.62
2018-06-18T16:00:31.397Z,6.00
2018-06-18T16:03:03.043Z,6.55
2018-06-18T16:05:34.306Z,6.80
2018-06-18T16:08:05.209Z,5.92
2018-06-18T16:10:36.948Z,6.58
2018-06-18T16:13:08.420Z,6.90
2018-06-18T16:15:39.539Z,6.45
2018-06-18T16:18:11.320Z,6.20
2018-06-18T16:20:43.583Z,8.63
2018-06-18T16:23:15.080Z,5.92
2018-06-18T16:25:46.420Z,6.12
2018-06-18T16:28:18.286Z,6.28
2018-06-18T16:30:49.608Z,6.30
2018-06-18T16:33:20.969Z,6.35
2018-06-18T16:35:51.777Z,5.90
2018-06-18T16:38:22.755Z,5.60
2018-06-18T16:40:54.033Z,5.83
2018-06-18T16:43:25.615Z,6.10
2018-06-18T16:45:57.199Z,6.42
2018-06-18T16:48:28.559Z,6.45
2018-06-18T16:50:59.977Z,5.97
2018-06-18T16:53:31.501Z,6.08
2018-06-18T16:56:03.072Z,6.60
2018-06-18T16:58:34.754Z,5.83
2018-06-18T17:01:07.244Z,9.03
2018-06-18T17:03:38.077Z,16.27
2018-06-18T17:06:09.211Z,11.88
2018-06-18T17:08:40.937Z,15.98
2018-06-18T17:11:12.446Z,9.68
2018-06-18T17:13:44.123Z,6.65
2018-06-18T17:16:15.624Z,6.05
2018-06-18T17:18:47.164Z,7.55
2018-06-18T17:21:18.453Z,8.25
2018-06-18T17:23:50.003Z,6.92
2018-06-18T17:26:21.884Z,6.12
2018-06-18T17:28:53.466Z,6.28
2018-06-18T17:31:24.812Z,7.25
2018-06-18T17:33:56.673Z,6.20
2018-06-18T17:36:27.825Z,6.55
2018-06-18T17:38:59.120Z,7.83
2018-06-18T17:41:30.347Z,7.72
2018-06-18T17:44:01.831Z,6.20
2018-06-18T17:46:33.264Z,6.22
2018-06-18T17:49:04.834Z,5.92
2018-06-18T17:51:36.423Z,6.28
2018-06-18T17:54:07.961Z,6.50
2018-06-18T17:56:39.379Z,5.80
2018-06-18T17:59:10.843Z,5.70
2018-06-18T18:01:41.746Z,6.53
2018-06-18T18:04:13.224Z,6.78
2018-06-18T18:06:45.146Z,6.45
2018-06-18T18:09:17.139Z,6.30
2018-06-18T18:11:48.380Z,6.92
2018-06-18T18:14:20.036Z,6.28
2018-06-18T18:16:52.282Z,6.80
2018-06-18T18:19:23.811Z,6.83
2018-06-18T18:21:55.142Z,7.12
2018-06-18T18:24:26.637Z,8.08
2018-06-18T18:26:58.241Z,7.25
2018-06-18T18:29:29.710Z,6.37
2018-06-18T18:32:01.119Z,6.15
2018-06-18T18:34:32.727Z,7.33
2018-06-18T18:37:04.126Z,7.95
2018-06-18T18:39:35.904Z,6.78
2018-06-18T18:42:07.391Z,6.92
2018-06-18T18:44:39.092Z,6.30
2018-06-18T18:47:10.487Z,7.03
2018-06-18T18:49:41.993Z,9.00
2018-06-18T18:52:14.098Z,7.17
2018-06-18T18:56:03.992Z,7.08
2018-06-18T18:59:40.493Z,7.00
2018-06-18T19:02:11.520Z,6.70
2018-06-18T19:04:49.770Z,8.35
2018-06-18T19:07:43.199Z,10.30
2018-06-18T19:10:25.304Z,8.23
2018-06-18T19:12:58.538Z,7.60
2018-06-18T19:15:29.881Z,9.18
2018-06-18T19:18:01.045Z,7.92
2018-06-18T19:20:41.322Z,9.73
2018-06-18T19:23:13.004Z,8.63
2018-06-18T19:25:44.614Z,8.08
2018-06-18T19:28:15.673Z,7.85
2018-06-18T19:30:51.369Z,7.97
2018-06-18T19:33:33.506Z,9.43
2018-06-18T19:36:05.145Z,8.18
2018-06-18T19:38:36.956Z,8.45
2018-06-18T19:41:08.160Z,9.58
2018-06-18T19:43:39.440Z,9.20
2018-06-18T19:46:11.063Z,7.47
2018-06-18T19:48:50.480Z,7.70
2018-06-18T19:51:22.550Z,7.75
2018-06-18T19:53:54.828Z,7.70
2018-06-18T19:56:26.151Z,7.85
2018-06-18T19:58:58.277Z,9.13
2018-06-18T20:01:30.793Z,9.93
2018-06-18T20:04:02.387Z,8.43
2018-06-18T20:06:34.526Z,9.25
2018-06-18T20:09:08.891Z,8.00
2018-06-18T20:11:40.401Z,7.87
2018-06-18T20:14:12.122Z,8.50
2018-06-18T20:16:43.582Z,8.20
2018-06-18T20:19:15.302Z,7.20
2018-06-18T20:21:47.197Z,7.25
2018-06-18T20:24:18.905Z,7.37
2018-06-18T20:26:50.319Z,7.95
2018-06-18T20:29:21.876Z,7.62
2018-06-18T20:31:53.744Z,7.22
2018-06-18T20:34:25.689Z,7.20
2018-06-18T20:36:57.078Z,7.08
2018-06-18T20:39:28.581Z,7.33
2018-06-18T20:42:00.085Z,7.28
2018-06-18T20:44:31.878Z,7.67
2018-06-18T20:47:03.407Z,7.65
2018-06-18T20:49:34.972Z,7.00
2018-06-18T20:52:06.424Z,7.47
2018-06-18T20:54:38.179Z,14.47
2018-06-18T20:57:09.803Z,12.05
2018-06-18T20:59:41.414Z,8.53
2018-06-18T21:02:13.028Z,7.92
2018-06-18T21:04:44.452Z,7.12
2018-06-18T21:07:16.090Z,7.05
2018-06-18T21:09:47.787Z,7.17
2018-06-18T21:12:19.428Z,7.70
2018-06-18T21:14:50.893Z,7.70
2018-06-18T21:17:23.535Z,7.28
2018-06-18T21:19:55.329Z,7.70
2018-06-18T21:22:26.696Z,8.08
2018-06-18T21:24:58.012Z,8.23
2018-06-18T21:27:29.789Z,7.72
2018-06-18T21:30:01.621Z,7.80
2018-06-18T21:32:33.228Z,8.10
2018-06-18T21:35:04.583Z,7.87
2018-06-18T21:37:36.502Z,8.50
2018-06-18T21:40:08.132Z,7.90
2018-06-18T21:42:39.563Z,7.50
2018-06-18T21:45:17.763Z,8.23
2018-06-18T21:47:50.012Z,8.23
2018-06-18T21:50:21.503Z,7.47
2018-06-18T21:52:52.866Z,7.72
2018-06-18T21:55:24.633Z,7.58
2018-06-18T21:57:56.070Z,7.90
2018-06-18T22:00:47.072Z,7.37
2018-06-18T22:03:19.148Z,7.17
2018-06-18T22:05:50.878Z,7.83
2018-06-18T22:08:24.431Z,7.67
2018-06-18T22:10:56.162Z,7.97
2018-06-18T22:13:27.367Z,7.25
2018-06-18T22:15:59.132Z,7.55
2018-06-18T22:18:30.508Z,7.12
2018-06-18T22:21:02.152Z,7.70
2018-06-18T22:23:33.708Z,7.05
2018-06-18T22:26:05.469Z,6.12
2018-06-18T22:28:39.920Z,7.35
2018-06-18T22:31:11.429Z,6.78
2018-06-18T22:33:42.953Z,7.00
2018-06-18T22:36:14.640Z,7.28
2018-06-18T22:38:46.172Z,6.87
2018-06-18T22:41:17.833Z,5.62
2018-06-18T22:43:49.253Z,6.05
2018-06-18T22:46:20.630Z,5.65
2018-06-18T22:48:52.125Z,5.30
2018-06-18T22:51:23.603Z,5.60
2018-06-18T22:53:55.906Z,5.53
2018-06-18T22:56:27.727Z,9.88
2018-06-18T22:58:59.210Z,6.00
2018-06-18T23:01:30.762Z,5.47
2018-06-18T23:04:02.784Z,5.35
2018-06-18T23:06:34.324Z,5.20
2018-06-18T23:09:11.009Z,4.75
2018-06-18T23:11:42.883Z,5.10
2018-06-18T23:14:20.659Z,5.17
2018-06-18T23:16:52.091Z,5.40
2018-06-18T23:19:23.588Z,5.37
2018-06-18T23:21:55.037Z,5.00
2018-06-18T23:24:25.819Z,5.42
2018-06-18T23:26:57.731Z,4.80
2018-06-18T23:29:29.068Z,4.78
2018-06-18T23:32:01.602Z,4.62
2018-06-18T23:34:33.052Z,4.67
2018-06-18T23:37:04.440Z,5.05
2018-06-18T23:39:35.818Z,4.90
2018-06-18T23:42:07.031Z,5.72
2018-06-18T23:44:38.356Z,4.65
2018-06-18T23:47:09.837Z,4.87
2018-06-18T23:49:41.307Z,4.72
2018-06-18T23:52:12.454Z,4.50
2018-06-18T23:54:43.931Z,4.37
2018-06-18T23:57:15.904Z,4.15
2018-06-18T23:59:47.882Z,4.30
